• Join FlightAware (Why Join?)
  • Login
  • US Flag 
01:23AM EST


 

Airport Tracker/Info


-or-


 

Live Flight TrackerFlight Track Log ✈ SWA286 ✈ 10-Apr-2013 ✈ KBWI - KRSW

Flight Track Log - Related Links

Times and Time Zones

All times are in EDT time to prevent confusion due to time zone crossing. See the SWA286 flight status page for this flight to view local times or setup timezone preferences in your user account.

Time Position Orientation Groundspeed Altitude Reporting Facility
EDT Latitude Longitude Course Direction KTS MPH feet Rate Location/Type
05:24PM 39.1414 -76.7397 143° Southeast 232 267 4,500  Level Washington Center
05:25PM 39.0833 -76.6833 143° Southeast 280 322 6,800 3,240 Climbing Potomac TRACON
05:26PM 39.0167 -76.6667 169° South 285 328 9,800 2,760 Climbing Potomac TRACON
05:27PM 38.9333 -76.6833 189° South 340 391 12,100 2,700 Climbing Potomac TRACON
05:28PM 38.8061 -76.6944 184° South 388 447 16,200 3,000 Climbing Washington Center
05:29PM 38.6997 -76.7064 185° South 393 452 19,200 2,880 Climbing Washington Center
05:30PM 38.5869 -76.7206 186° South 393 452 22,000 1,860 Climbing Washington Center
05:31PM 38.4767 -76.7136 177° South 399 459 23,000 1,260 Climbing Washington Center
05:32PM 38.3642 -76.6986 174° South 404 465 24,600 1,500 Climbing Washington Center
05:33PM 38.2475 -76.6836 174° South 415 478 26,000 1,440 Climbing Washington Center
05:34PM 38.1225 -76.6661 174° South 428 493 27,500 1,620 Climbing Washington Center
05:35PM 37.9997 -76.6511 175° South 445 512 29,300 1,740 Climbing Washington Center
05:36PM 37.8767 -76.6336 174° South 445 512 31,000 1,740 Climbing Washington Center
05:37PM 37.7497 -76.6161 174° South 451 519 32,800 1,500 Climbing Washington Center
05:38PM 37.6225 -76.5986 174° South 462 532 34,000 1,320 Climbing Washington Center
05:39PM 37.4956 -76.5814 174° South 462 532 35,500 1,380 Climbing Washington Center
05:40PM 37.3725 -76.5667 175° South 462 532 36,800 1,200 Climbing Washington Center
05:41PM 37.2453 -76.5519 175° South 462 532 37,900 600 Climbing Washington Center
05:42PM 37.1203 -76.5347 174° South 462 532 38,000  Climbing Washington Center
05:43PM 37.0033 -76.5750 195° South 444 511 38,000  Level Washington Center
05:44PM 36.8900 -76.6306 201° Southwest 434 499 38,000  Level Washington Center
05:45PM 36.7789 -76.6889 203° Southwest 439 505 38,000  Level Washington Center
05:46PM 36.6553 -76.7544 203° Southwest 444 511 38,000  Level Washington Center
05:47PM 36.5422 -76.8097 201° Southwest 444 511 38,000  Level Washington Center
05:48PM 36.4414 -76.8597 202° Southwest 436 502 38,000  Level Washington Center
05:49PM 36.3178 -76.9222 202° Southwest 436 502 38,000  Level Washington Center
05:50PM 36.2044 -76.9769 201° Southwest 436 502 38,000  Level Washington Center
05:51PM 36.0892 -77.0236 198° South 436 502 38,000  Level Washington Center
05:52PM 35.9697 -77.0678 197° South 436 502 38,000  Level Washington Center
05:53PM 35.8544 -77.1092 196° South 436 502 38,000  Level Washington Center
05:54PM 35.7392 -77.1506 196° South 441 507 38,000  Level Washington Center
05:55PM 35.6217 -77.1942 197° South 441 507 38,000  Level Washington Center
05:56PM 35.5042 -77.2378 197° South 441 507 38,000  Level Washington Center
05:57PM 35.3847 -77.2811 196° South 441 507 38,000  Level Washington Center
05:58PM 35.2694 -77.3219 196° South 441 507 38,000  Level Washington Center
05:59PM 35.1561 -77.3653 197° South 441 507 38,000  Level Washington Center
06:00PM 35.0406 -77.4083 197° South 441 507 38,000  Level Washington Center
06:01PM 34.9253 -77.4489 196° South 441 507 38,000  Level Washington Center
06:02PM 34.8119 -77.4944 198° South 441 507 38,000  Level Washington Center
06:03PM 34.6964 -77.5347 196° South 441 507 38,000  Level Washington Center
06:04PM 34.5789 -77.5747 196° South 441 507 38,000  Level Washington Center
06:08PM 34.1089 -77.7414 196° South 442 509 38,000  Level Jacksonville Center
06:09PM 33.9875 -77.7811 195° South 442 509 38,000  Level Jacksonville Center
06:10PM 33.8703 -77.8253 197° South 442 509 38,000  Level Jacksonville Center
06:12PM 33.6253 -77.9117 196° South 437 503 38,000  Level Jacksonville Center
06:13PM 33.5103 -77.9531 197° South 432 497 38,000  Level Jacksonville Center
06:14PM 33.3969 -77.9917 196° South 432 497 38,000  Level Jacksonville Center
06:15PM 33.2817 -78.0328 197° South 432 497 38,000  Level Jacksonville Center
06:16PM 33.1686 -78.0739 197° South 432 497 38,000  Level Jacksonville Center
06:17PM 33.0531 -78.1122 196° South 432 497 38,000  Level Jacksonville Center
06:18PM 32.9397 -78.1503 196° South 432 497 38,000  Level Jacksonville Center
06:19PM 32.8242 -78.1886 196° South 432 497 38,000  Level Jacksonville Center
06:20PM 32.7089 -78.2317 197° South 432 497 38,000  Level Jacksonville Center
06:21PM 32.5975 -78.2669 195° South 432 497 38,000  Level Jacksonville Center
06:22PM 32.4800 -78.3075 196° South 432 497 38,000  Level Jacksonville Center
06:23PM 32.3647 -78.3453 195° South 432 497 38,000  Level Jacksonville Center
06:24PM 32.2617 -78.3847 198° South 432 497 38,000  Level Jacksonville Center
06:25PM 32.1481 -78.4222 196° South 432 497 38,000  Level Jacksonville Center
06:26PM 32.0286 -78.4622 196° South 439 505 38,000  Level Jacksonville Center
06:27PM 31.9131 -78.4997 195° South 434 499 38,000  Level Jacksonville Center
06:28PM 31.7975 -78.5419 197° South 434 499 38,000  Level Jacksonville Center
06:29PM 31.6797 -78.5792 195° South 434 499 38,000  Level Jacksonville Center
06:30PM 31.5622 -78.6211 197° South 434 499 38,000  Level Jacksonville Center
06:31PM 31.4425 -78.6631 197° South 434 499 38,000  Level Jacksonville Center
06:32PM 31.3267 -78.6975 194° South 434 499 38,000  Level Jacksonville Center
06:33PM 31.2131 -78.7342 195° South 434 499 38,000  Level Jacksonville Center
06:34PM 31.0956 -78.7781 198° South 434 499 38,000  Level Jacksonville Center
06:35PM 30.9694 -78.8175 195° South 431 496 38,000  Level Jacksonville Center
06:36PM 30.8497 -78.8567 196° South 448 516 38,000  Level Jacksonville Center
06:37PM 30.7342 -78.8953 196° South 442 509 38,000  Level Jacksonville Center
06:39PM 30.5736 -78.9461 195° South 418 481 38,000  Level Miami Center
06:40PM 30.4647 -78.9825 196° South 423 487 38,000  Level Miami Center
06:41PM 30.3492 -79.0308 200° South 428 493 38,000  Level Miami Center
06:42PM 30.2381 -79.0764 200° South 428 493 38,000 -120 Level Miami Center
06:43PM 30.1267 -79.1317 203° Southwest 434 499 37,800 -660 Descending Miami Center
06:44PM 30.0131 -79.2061 210° Southwest 428 493 36,700 -900 Descending Miami Center
06:45PM 29.9075 -79.2706 208° Southwest 428 493 36,000 -360 Descending Miami Center
06:46PM 29.7981 -79.3328 206° Southwest 433 498 36,000  Level Miami Center
06:47PM 29.6867 -79.3925 205° Southwest 439 505 36,000  Level Miami Center
06:48PM 29.5769 -79.4567 207° Southwest 439 505 36,000  Level Miami Center
06:49PM 29.4694 -79.5158 206° Southwest 439 505 36,000 -480 Level Miami Center
06:50PM 29.3597 -79.5800 207° Southwest 439 505 35,100 -900 Descending Miami Center
06:51PM 29.2461 -79.6389 204° Southwest 439 505 34,200 -1,200 Descending Miami Center
06:52PM 29.1364 -79.7053 208° Southwest 445 512 32,800 -1,500 Descending Miami Center
06:53PM 29.0244 -79.7664 206° Southwest 445 512 31,300 -1,860 Descending Miami Center
06:54PM 28.9189 -79.8275 207° Southwest 440 506 29,100 -2,220 Descending Miami Center
06:55PM 28.8156 -79.8864 207° Southwest 435 501 26,900 -2,220 Descending Miami Center
06:56PM 28.7142 -79.9428 206° Southwest 425 489 24,700 -1,500 Descending Miami Center
06:57PM 28.6414 -80.0258 225° Southwest 369 425 24,000 -360 Descending Miami Center
06:58PM 28.5933 -80.1239 241° Southwest 388 447 24,000  Level Miami Center
06:59PM 28.5344 -80.2261 237° Southwest 394 453 24,000 -300 Level Miami Center
07:00PM 28.4775 -80.3472 242° Southwest 394 453 23,500 -780 Descending Miami Center
07:01PM 28.4247 -80.4517 240° Southwest 386 444 22,500 -1,020 Descending Miami Center
07:02PM 28.3394 -80.5197 215° Southwest 381 438 21,500 -1,020 Descending Miami Center
07:03PM 28.2522 -80.5828 212° Southwest 381 438 20,500 -1,020 Descending Miami Center
07:04PM 28.1631 -80.6458 212° Southwest 381 438 19,500 -1,020 Descending Miami Center
07:05PM 28.0800 -80.7067 213° Southwest 381 438 18,500 -960 Descending Miami Center
07:06PM 27.9969 -80.7697 214° Southwest 372 428 17,600 -780 Descending Miami Center
07:07PM 27.9119 -80.8303 212° Southwest 372 428 17,000 -300 Descending Miami Center
07:08PM 27.8267 -80.8906 212° Southwest 372 428 17,100 -300 Climbing Miami Center
07:09PM 27.7456 -80.9533 214° Southwest 372 428 16,400 -900 Descending Miami Center
07:10PM 27.6689 -81.0092 213° Southwest 372 428 15,400 -1,080 Descending Miami Center
07:11PM 27.5794 -81.0717 212° Southwest 362 417 14,300 -660 Descending Miami Center
07:12PM 27.4961 -81.1317 213° Southwest 355 409 14,100 -420 Descending Miami Center
07:13PM 27.4153 -81.1894 212° Southwest 350 403 13,500 -780 Descending Miami Center
07:14PM 27.3469 -81.2408 214° Southwest 350 403 12,600 -1,020 Descending Miami Center
07:15PM 27.2594 -81.3028 212° Southwest 345 397 11,500 -1,020 Descending Miami Center
07:16PM 27.1847 -81.3558 212° Southwest 339 390 10,600 -840 Descending Miami Center
07:17PM 27.1100 -81.4067 211° Southwest 334 384 9,900 -360 Descending Miami Center
07:18PM 27.0303 -81.4153 185° South 301 346 9,900  Level Miami Center
07:19PM 26.9594 -81.4147 180° South 285 328 10,000  Climbing Miami Center
07:20PM 26.8739 -81.4092 177° South 280 322 9,900  Descending Miami Center
07:21PM 26.8014 -81.3925 168° South 275 316 10,000 -600 Climbing Miami Center
07:22PM 26.7219 -81.3961 182° South 275 316 8,700 -1,500 Descending Miami Center
07:23PM 26.6586 -81.4169 196° South 264 304 7,000 -1,560 Descending Miami Center
07:24PM 26.6106 -81.4850 232° Southwest 269 310 5,600 3,480 Descending Miami Center
07:25PM 26.5622 -81.5642 236° Southwest 281 323 14,000 -840 Climbing Miami Center
07:26PM 26.5142 -81.6294 231° Southwest 281 323 4,000 -10,020 Descending Miami Center
07:28PM 26.5333 -81.7500 318° Northwest  Level FlightAware Approximate
07:35PM 26.5362 -81.7552 318° Northwest  Level Estimated
07:36PM 26.5333 -81.7500 318° Northwest  Level FlightAware Approximate
07:37PM 26.5362 -81.7552 318° Northwest  Level Estimated
07:38PM 26.5333 -81.7500 318° Northwest  Level FlightAware Approximate
07:39PM 26.5362 -81.7552 318° Northwest  Level Estimated
07:40PM 26.5333 -81.7500 318° Northwest  Level FlightAware Approximate
07:41PM 26.5362 -81.7552 318° Northwest  Level Estimated
07:42PM 26.5333 -81.7500 318° Northwest  Level FlightAware Approximate